Time;durP1;ratioP1;P1;durP2;ratioP2;P2;SDS_P1;SDS_P2;PMS_P1;PMS_P2;Temp;Humidity;BMP_temperature;BMP_pressure;BME280_temperature;BME280_humidity;BME280_pressure;Samples;Min_cycle;Max_cycle;Signal;HPM_P1;HPM_P2
2023/11/06 00:02:20;;;;;;;;;;;;;;;-144.99;100.00;52494.97;5095298;28;20068;-71
2023/11/06 00:04:47;;;;;;;;;;;;;;;-144.99;100.00;52525.56;5091926;28;20054;-71
2023/11/06 00:07:15;;;;;;;;;;;;;;;-144.99;100.00;52492.94;5087734;28;20044;-70
2023/11/06 00:09:41;;;;;;;;;;;;;;;-144.99;100.00;52492.94;5090911;28;20060;-71
2023/11/06 00:12:09;;;;;;;;;;;;;;;-144.99;100.00;52521.47;5098925;28;19930;-70
2023/11/06 00:14:36;;;;;;;;;;;;;;;-144.99;100.00;52503.13;5096245;28;19978;-70
2023/11/06 00:17:02;;;;;;;;;;;;;;;-144.99;100.00;52509.25;5088823;28;19930;-71
2023/11/06 00:19:29;;;;;;;;;;;;;;;-144.99;100.00;52492.94;5088709;28;20472;-70
2023/11/06 00:21:57;;;;;;;;;;;;;;;-144.99;100.00;52517.41;5088181;28;20284;-72
2023/11/06 00:24:25;;;;;;;;;;;;;;;-144.99;100.00;52497.00;5095597;28;19928;-73
2023/11/06 00:26:52;;;;;;;;;;;;;;;-144.99;100.00;52515.34;5086134;28;19928;-73
2023/11/06 00:29:19;;;;;;;;;;;;;;;-144.99;100.00;52492.94;5089293;28;20303;-71
2023/11/06 00:31:45;;;;;;;;;;;;;;;-144.99;100.00;52515.34;5076740;28;20540;-69
2023/11/06 00:34:12;;;;;;;;;;;;;;;-144.99;100.00;52507.19;5095560;28;20056;-72
2023/11/06 00:36:39;;;;;;;;;;;;;;;-144.99;100.00;52470.50;5101499;28;20549;-68
2023/11/06 00:39:07;;;;;;;;;;;;;;;-144.99;100.00;52488.84;5090037;28;19924;-71
2023/11/06 00:41:35;;;;;;;;;;;;;;;-144.99;100.00;52521.47;5092715;28;19942;-72
2023/11/06 00:44:01;;;;;;;;;;;;;;;-144.99;100.00;52492.94;5101002;28;20040;-72
2023/11/06 00:46:27;;;;;;;;;;;;;;;-144.99;100.00;52509.25;5096399;28;20286;-71
2023/11/06 00:48:54;;;;;;;;;;;;;;;-144.99;100.00;52488.84;5098891;28;20404;-72
2023/11/06 00:51:20;;;;;;;;;;;;;;;-144.99;100.00;52480.72;5115059;28;19965;-74
2023/11/06 00:53:47;;;;;;;;;;;;;;;-144.99;100.00;52499.06;5108913;28;19939;-72
2023/11/06 00:56:13;;;;;;;;;;;;;;;-144.99;100.00;52456.25;5109922;28;19951;-73
2023/11/06 00:58:41;;;;;;;;;;;;;;;-144.99;100.00;52497.00;5112335;28;19954;-71
2023/11/06 01:01:07;;;;;;;;;;;;;;;-144.99;100.00;52537.78;5087538;28;20044;-72
2023/11/06 01:03:34;;;;;;;;;;;;;;;-144.99;100.00;52488.84;5092690;28;20498;-72
2023/11/06 01:06:00;;;;;;;;;;;;;;;-144.99;100.00;52490.91;5091338;28;19954;-73
2023/11/06 01:08:26;;;;;;;;;;;;;;;-144.99;100.00;52527.59;5095739;28;20331;-74
2023/11/06 01:10:53;;;;;;;;;;;;;;;-144.99;100.00;52529.63;5094601;28;19932;-73
2023/11/06 01:13:19;;;;;;;;;;;;;;;-144.99;100.00;52515.34;5090328;28;20031;-73
2023/11/06 01:15:48;;;;;;;;;;;;;;;-144.99;100.00;52517.41;5097408;28;19942;-74
2023/11/06 01:18:15;;;;;;;;;;;;;;;-144.99;100.00;52505.16;5101230;28;19939;-74
2023/11/06 01:20:41;;;;;;;;;;;;;;;-144.99;100.00;52529.63;5100038;28;20050;-74
2023/11/06 01:23:08;;;;;;;;;;;;;;;-144.99;100.00;52511.28;5089505;28;20319;-73
2023/11/06 01:25:35;;;;;;;;;;;;;;;-144.99;100.00;52486.81;5101614;28;19936;-74
2023/11/06 01:28:04;;;;;;;;;;;;;;;-144.99;100.00;52497.00;5101916;28;20014;-73
2023/11/06 01:30:30;;;;;;;;;;;;;;;-144.99;100.00;52509.25;5095917;28;19954;-74
2023/11/06 01:33:00;;;;;;;;;;;;;;;-144.99;100.00;52529.63;5100750;28;19965;-72
2023/11/06 01:35:30;;;;;;;;;;;;;;;-144.99;100.00;52476.63;5091512;28;20421;-72
2023/11/06 01:37:56;;;;;;;;;;;;;;;-144.99;100.00;52545.94;5097553;28;19940;-72
2023/11/06 01:40:23;;;;;;;;;;;;;;;-144.99;100.00;52525.56;5095559;28;19995;-73
2023/11/06 01:42:51;;;;;;;;;;;;;;;-144.99;100.00;52541.84;5098430;28;19942;-72
2023/11/06 01:45:18;;;;;;;;;;;;;;;-144.99;100.00;52503.13;5092267;28;19938;-72
2023/11/06 01:47:44;;;;;;;;;;;;;;;-144.99;100.00;52541.84;5100375;28;20025;-73
2023/11/06 01:50:13;;;;;;;;;;;;;;;-144.99;100.00;52560.19;5102509;28;20154;-72
2023/11/06 01:52:40;;;;;;;;;;;;;;;-144.99;100.00;52556.13;5102957;28;19942;-73
2023/11/06 01:55:07;;;;;;;;;;;;;;;-144.99;100.00;52468.47;5097880;28;20599;-72
2023/11/06 01:57:34;;;;;;;;;;;;;;;-144.99;100.00;52537.78;5089257;28;20026;-72
2023/11/06 02:00:00;;;;;;;;;;;;;;;-144.99;100.00;52505.16;5097664;28;20532;-73
2023/11/06 02:02:29;;;;;;;;;;;;;;;-144.99;100.00;52501.09;5101094;28;20026;-71
2023/11/06 02:04:56;;;;;;;;;;;;;;;-144.99;100.00;52529.63;5095258;28;20311;-69
2023/11/06 02:07:23;;;;;;;;;;;;;;;-144.99;100.00;52509.25;5102143;28;19928;-70
2023/11/06 02:09:50;;;;;;;;;;;;;;;-144.99;100.00;52541.84;5094639;28;20052;-68
2023/11/06 02:12:16;;;;;;;;;;;;;;;-144.99;100.00;52570.38;5098197;28;20005;-70
2023/11/06 02:14:49;;;;;;;;;;;;;;;-144.99;100.00;52505.16;5100032;28;20071;-71
2023/11/06 02:17:16;;;;;;;;;;;;;;;-144.99;100.00;52537.78;5112087;28;19927;-71
2023/11/06 02:19:42;;;;;;;;;;;;;;;-144.99;100.00;52488.84;5105886;28;19959;-72
2023/11/06 02:22:09;;;;;;;;;;;;;;;-144.99;100.00;52525.56;5093774;28;20299;-74
2023/11/06 02:24:37;;;;;;;;;;;;;;;-144.99;100.00;52545.94;5100779;28;19936;-73
2023/11/06 02:27:04;;;;;;;;;;;;;;;-144.99;100.00;52533.69;5094592;28;20671;-71
2023/11/06 02:29:30;;;;;;;;;;;;;;;-144.99;100.00;52554.09;5100282;28;20010;-72
2023/11/06 02:31:57;;;;;;;;;;;;;;;-144.99;100.00;52529.63;5101807;28;19939;-71
2023/11/06 02:34:24;;;;;;;;;;;;;;;-144.99;100.00;52537.78;5088693;28;19932;-73
2023/11/06 02:36:50;;;;;;;;;;;;;;;-144.99;100.00;52556.13;5096893;28;20007;-72
2023/11/06 02:39:17;;;;;;;;;;;;;;;-144.99;100.00;52515.34;5096507;28;20038;-72
2023/11/06 02:41:44;;;;;;;;;;;;;;;-144.99;100.00;52541.84;5091091;28;19928;-72
2023/11/06 02:44:11;;;;;;;;;;;;;;;-144.99;100.00;52550.00;5099058;28;20387;-71
2023/11/06 02:46:38;;;;;;;;;;;;;;;-144.99;100.00;52537.78;5091851;28;19928;-73
2023/11/06 02:49:04;;;;;;;;;;;;;;;-144.99;100.00;52533.69;5100979;28;20011;-71
2023/11/06 02:51:31;;;;;;;;;;;;;;;-144.99;100.00;52547.97;5092266;28;20388;-71
2023/11/06 02:53:57;;;;;;;;;;;;;;;-144.99;100.00;52545.94;5100334;28;19923;-72
2023/11/06 02:56:24;;;;;;;;;;;;;;;-144.99;100.00;52505.16;5099532;28;20303;-70
2023/11/06 02:58:52;;;;;;;;;;;;;;;-144.99;100.00;52525.56;5100189;28;20026;-70
2023/11/06 03:01:19;;;;;;;;;;;;;;;-144.99;100.00;52554.09;5094940;28;19934;-70
2023/11/06 03:03:46;;;;;;;;;;;;;;;-144.99;100.00;52566.31;5098547;28;19995;-71
2023/11/06 03:06:12;;;;;;;;;;;;;;;-144.99;100.00;52533.69;5094194;28;19927;-71
2023/11/06 03:08:38;;;;;;;;;;;;;;;-144.99;100.00;52488.84;5095529;28;19963;-70
2023/11/06 03:11:05;;;;;;;;;;;;;;;-144.99;100.00;52513.31;5096424;28;19996;-71
2023/11/06 03:13:32;;;;;;;;;;;;;;;-144.99;100.00;52550.00;5099255;28;19930;-70
2023/11/06 03:16:00;;;;;;;;;;;;;;;-144.99;100.00;52554.09;5093806;28;19935;-70
2023/11/06 03:18:27;;;;;;;;;;;;;;;-144.99;100.00;52539.81;5096607;28;19935;-69
2023/11/06 03:20:54;;;;;;;;;;;;;;;-144.99;100.00;52529.63;5095101;28;19928;-69
2023/11/06 03:23:20;;;;;;;;;;;;;;;-144.99;100.00;52554.09;5087406;28;19928;-69
2023/11/06 03:25:46;;;;;;;;;;;;;;;-144.99;100.00;52562.25;5099270;28;20010;-69
2023/11/06 03:28:13;;;;;;;;;;;;;;;-144.99;100.00;52541.84;4739677;28;9999738;-70
2023/11/06 03:30:39;;;;;;;;;;;;;;;-144.99;100.00;52537.78;5088240;28;19932;-70
2023/11/06 03:33:07;;;;;;;;;;;;;;;-144.99;100.00;52541.84;5086977;28;20066;-70
2023/11/06 03:35:35;;;;;;;;;;;;;;;-144.99;100.00;52554.09;5095587;28;20006;-70
2023/11/06 03:38:01;;;;;;;;;;;;;;;-144.99;100.00;52529.63;5102156;28;19934;-68
2023/11/06 03:40:28;;;;;;;;;;;;;;;-144.99;100.00;52586.69;5093287;28;19966;-68
2023/11/06 03:42:55;;;;;;;;;;;;;;;-144.99;100.00;52550.00;5097373;28;19966;-66
2023/11/06 03:45:21;;;;;;;;;;;;;;;-144.99;100.00;52541.84;5092766;28;20023;-68
2023/11/06 03:47:48;;;;;;;;;;;;;;;-144.99;100.00;52533.69;5107013;28;20264;-70
2023/11/06 03:50:16;;;;;;;;;;;;;;;-144.99;100.00;52513.31;5105613;28;19932;-70
2023/11/06 03:52:43;;;;;;;;;;;;;;;-144.99;100.00;52545.94;5110081;28;19978;-70
2023/11/06 03:55:09;;;;;;;;;;;;;;;-144.99;100.00;52566.31;5097184;28;19968;-72
2023/11/06 03:57:35;;;;;;;;;;;;;;;-144.99;100.00;52539.81;5099157;28;19983;-70
2023/11/06 04:00:03;;;;;;;;;;;;;;;-144.99;100.00;52517.41;5099527;28;20248;-70
2023/11/06 04:02:29;;;;;;;;;;;;;;;-144.99;100.00;52521.47;5097384;28;20356;-69
2023/11/06 04:04:55;;;;;;;;;;;;;;;-144.99;100.00;52533.69;5100488;28;20323;-70
2023/11/06 04:07:23;;;;;;;;;;;;;;;-144.99;100.00;52558.16;5103386;28;19963;-70
2023/11/06 04:09:50;;;;;;;;;;;;;;;-144.99;100.00;52525.56;5091516;28;20467;-68
2023/11/06 04:12:16;;;;;;;;;;;;;;;-144.99;100.00;52517.41;5092936;28;20022;-70
2023/11/06 04:14:42;;;;;;;;;;;;;;;-144.99;100.00;52556.13;5097324;28;19971;-71
2023/11/06 04:17:09;;;;;;;;;;;;;;;-144.99;100.00;52556.13;5095811;28;20427;-70
2023/11/06 04:19:35;;;;;;;;;;;;;;;-144.99;100.00;52545.94;5093671;28;20023;-70
2023/11/06 04:22:02;;;;;;;;;;;;;;;-144.99;100.00;52566.31;5089352;28;19969;-70
2023/11/06 04:24:29;;;;;;;;;;;;;;;-144.99;100.00;52570.38;5100649;28;19924;-70
2023/11/06 04:26:56;;;;;;;;;;;;;;;-144.99;100.00;52533.69;5102514;28;19967;-70
2023/11/06 04:29:22;;;;;;;;;;;;;;;-144.99;100.00;52578.53;5098725;28;20396;-68
2023/11/06 04:31:49;;;;;;;;;;;;;;;-144.99;100.00;52545.94;5103810;28;19982;-69
2023/11/06 04:34:15;;;;;;;;;;;;;;;-144.99;100.00;52525.56;5098358;28;19934;-69
2023/11/06 04:36:41;;;;;;;;;;;;;;;-144.99;100.00;52562.25;5101614;28;20431;-69
2023/11/06 04:39:09;;;;;;;;;;;;;;;-144.99;100.00;52515.34;5093644;28;20015;-69
2023/11/06 04:41:37;;;;;;;;;;;;;;;-144.99;100.00;52543.91;5092899;28;20441;-68
2023/11/06 04:44:04;;;;;;;;;;;;;;;-144.99;100.00;52562.25;5089681;28;20273;-69
2023/11/06 04:46:30;;;;;;;;;;;;;;;-144.99;100.00;52541.84;5102038;28;20351;-70
2023/11/06 04:48:57;;;;;;;;;;;;;;;-144.99;100.00;52550.00;5103054;28;19978;-72
2023/11/06 04:51:23;;;;;;;;;;;;;;;-144.99;100.00;52547.97;5096243;28;19928;-70
2023/11/06 04:53:50;;;;;;;;;;;;;;;-144.99;100.00;52537.78;5092008;28;20303;-70
2023/11/06 04:56:16;;;;;;;;;;;;;;;-144.99;100.00;52574.47;5098979;28;19928;-71
2023/11/06 04:58:44;;;;;;;;;;;;;;;-144.99;100.00;52554.09;5099539;28;19934;-70
2023/11/06 05:01:10;;;;;;;;;;;;;;;-144.99;100.00;52558.16;5101648;28;19985;-70
2023/11/06 05:03:38;;;;;;;;;;;;;;;-144.99;100.00;52550.00;5101463;28;20459;-70
2023/11/06 05:06:05;;;;;;;;;;;;;;;-144.99;100.00;52586.69;5079737;28;19924;-69
2023/11/06 05:08:33;;;;;;;;;;;;;;;-144.99;100.00;52552.03;5110933;28;20044;-70
2023/11/06 05:10:59;;;;;;;;;;;;;;;-144.99;100.00;52574.47;5109535;28;19928;-70
2023/11/06 05:13:26;;;;;;;;;;;;;;;-144.99;100.00;52586.69;5099339;28;19924;-69
2023/11/06 05:15:53;;;;;;;;;;;;;;;-144.99;100.00;52533.69;5106138;28;19928;-69
2023/11/06 05:18:20;;;;;;;;;;;;;;;-144.99;100.00;52550.00;5097559;28;19997;-68
2023/11/06 05:20:46;;;;;;;;;;;;;;;-144.99;100.00;52525.56;5099012;28;19928;-69
2023/11/06 05:23:13;;;;;;;;;;;;;;;-144.99;100.00;52525.56;5089551;28;20004;-69
2023/11/06 05:25:39;;;;;;;;;;;;;;;-144.99;100.00;52541.84;5088564;28;20019;-71
2023/11/06 05:28:06;;;;;;;;;;;;;;;-144.99;100.00;52554.09;5088547;28;20022;-72
2023/11/06 05:30:32;;;;;;;;;;;;;;;-144.99;100.00;52545.94;5100777;28;20383;-73
2023/11/06 05:33:00;;;;;;;;;;;;;;;-144.99;100.00;52562.25;5109012;28;20313;-72
2023/11/06 05:35:26;;;;;;;;;;;;;;;-144.99;100.00;52590.78;5102452;28;19972;-73
2023/11/06 05:37:53;;;;;;;;;;;;;;;-144.99;100.00;52562.25;5093064;28;20004;-73
2023/11/06 05:40:19;;;;;;;;;;;;;;;-144.99;100.00;52562.25;5095003;28;20077;-72
2023/11/06 05:42:46;;;;;;;;;;;;;;;-144.99;100.00;52545.94;5095381;28;19939;-73
2023/11/06 05:45:15;;;;;;;;;;;;;;;-144.99;100.00;52545.94;5091495;28;19928;-72
2023/11/06 05:47:41;;;;;;;;;;;;;;;-144.99;100.00;52570.38;5094916;28;19930;-72
2023/11/06 05:50:09;;;;;;;;;;;;;;;-144.99;100.00;52539.81;5089820;28;20099;-72
2023/11/06 05:52:36;;;;;;;;;;;;;;;-144.99;100.00;52525.56;5096626;28;19927;-73
2023/11/06 05:55:02;;;;;;;;;;;;;;;-144.99;100.00;52586.69;5100151;28;20347;-73
2023/11/06 05:57:29;;;;;;;;;;;;;;;-144.99;100.00;52545.94;5093249;28;20299;-73
2023/11/06 05:59:55;;;;;;;;;;;;;;;-144.99;100.00;52529.63;5094480;28;20401;-72
2023/11/06 06:02:22;;;;;;;;;;;;;;;-144.99;100.00;52517.41;5091190;28;20014;-72
2023/11/06 06:04:48;;;;;;;;;;;;;;;-144.99;100.00;52529.63;5094405;28;19931;-72
2023/11/06 06:07:16;;;;;;;;;;;;;;;-144.99;100.00;52537.78;5091764;28;20014;-72
2023/11/06 06:09:42;;;;;;;;;;;;;;;-144.99;100.00;52545.94;5096774;28;19981;-71
2023/11/06 06:12:11;;;;;;;;;;;;;;;-144.99;100.00;52550.00;5095957;28;20154;-72
2023/11/06 06:14:37;;;;;;;;;;;;;;;-144.99;100.00;52529.63;5095209;28;20385;-73
2023/11/06 06:17:05;;;;;;;;;;;;;;;-144.99;100.00;52484.78;5092754;28;20028;-73
2023/11/06 06:19:32;;;;;;;;;;;;;;;-144.99;100.00;52541.84;5092639;28;21307;-72
2023/11/06 06:21:58;;;;;;;;;;;;;;;-144.99;100.00;52537.78;4386856;28;10000642;-73
2023/11/06 06:24:26;;;;;;;;;;;;;;;-144.99;100.00;52517.41;5097629;28;20050;-72
2023/11/06 06:26:52;;;;;;;;;;;;;;;-144.99;100.00;52507.19;5100863;28;19934;-76
2023/11/06 06:29:19;;;;;;;;;;;;;;;-144.99;100.00;52550.00;5099719;28;20573;-73
2023/11/06 06:31:45;;;;;;;;;;;;;;;-144.99;100.00;52521.47;5102789;28;19927;-73
2023/11/06 06:34:13;;;;;;;;;;;;;;;-144.99;100.00;52503.13;5093364;28;20018;-72
2023/11/06 06:36:40;;;;;;;;;;;;;;;-144.99;100.00;52537.78;5100254;28;19927;-74
2023/11/06 06:39:06;;;;;;;;;;;;;;;-144.99;100.00;52545.94;5097897;28;20444;-74
2023/11/06 06:41:34;;;;;;;;;;;;;;;-144.99;100.00;52550.00;5096515;28;19971;-74
2023/11/06 06:44:00;;;;;;;;;;;;;;;-144.99;100.00;52558.16;5090315;28;20031;-74
2023/11/06 06:46:27;;;;;;;;;;;;;;;-144.99;100.00;52517.41;5097163;28;19955;-74
2023/11/06 06:48:53;;;;;;;;;;;;;;;-144.99;100.00;52525.56;5102995;28;20026;-73
2023/11/06 06:51:20;;;;;;;;;;;;;;;-144.99;100.00;52558.16;5094627;28;19943;-73
2023/11/06 06:53:46;;;;;;;;;;;;;;;-144.99;100.00;52533.69;5097992;28;19932;-74
2023/11/06 06:56:13;;;;;;;;;;;;;;;-144.99;100.00;52525.56;5104495;28;19934;-73
2023/11/06 06:58:42;;;;;;;;;;;;;;;-144.99;100.00;52529.63;5098920;28;19924;-75
2023/11/06 07:01:09;;;;;;;;;;;;;;;-144.99;100.00;52501.09;5097049;28;19928;-75
2023/11/06 07:03:37;;;;;;;;;;;;;;;-144.99;100.00;52525.56;5097881;28;19997;-74
2023/11/06 07:06:05;;;;;;;;;;;;;;;-144.99;100.00;52505.16;5105033;28;20228;-75
2023/11/06 07:08:31;;;;;;;;;;;;;;;-144.99;100.00;52533.69;5082357;28;19988;-74
2023/11/06 07:10:58;;;;;;;;;;;;;;;-144.99;100.00;52541.84;5101821;28;20654;-72
2023/11/06 07:13:24;;;;;;;;;;;;;;;-144.99;100.00;52501.09;5090274;28;19969;-75
2023/11/06 07:15:52;;;;;;;;;;;;;;;-144.99;100.00;52525.56;5101209;28;20023;-74
2023/11/06 07:18:18;;;;;;;;;;;;;;;-144.99;100.00;52497.00;5104946;28;19924;-74
2023/11/06 07:20:45;;;;;;;;;;;;;;;-144.99;100.00;52521.47;5098016;27;19991;-75
2023/11/06 07:23:12;;;;;;;;;;;;;;;-144.99;100.00;52517.41;5118033;28;19962;-76
2023/11/06 07:25:38;;;;;;;;;;;;;;;-144.99;100.00;52550.00;5118304;28;19961;-74
2023/11/06 07:28:05;;;;;;;;;;;;;;;-144.99;100.00;52537.78;5122694;28;19978;-75
2023/11/06 07:30:31;;;;;;;;;;;;;;;-144.99;100.00;52543.91;5123606;28;19912;-74
2023/11/06 07:32:59;;;;;;;;;;;;;;;-144.99;100.00;52517.41;5099442;28;20542;-73
2023/11/06 07:35:25;;;;;;;;;;;;;;;-144.99;100.00;52541.84;5087942;28;19975;-75
2023/11/06 07:37:52;;;;;;;;;;;;;;;-144.99;100.00;52529.63;5093963;28;20451;-74
2023/11/06 07:40:19;;;;;;;;;;;;;;;-144.99;100.00;52537.78;5094171;28;20070;-74
2023/11/06 07:42:45;;;;;;;;;;;;;;;-144.99;100.00;52511.28;5098691;28;20031;-74
2023/11/06 07:45:12;;;;;;;;;;;;;;;-144.99;100.00;52517.41;5099074;28;19935;-72
2023/11/06 07:47:39;;;;;;;;;;;;;;;-144.99;100.00;52558.16;5076165;28;19959;-73
2023/11/06 07:50:08;;;;;;;;;;;;;;;-144.99;100.00;52533.69;5091814;28;20455;-72
2023/11/06 07:52:35;;;;;;;;;;;;;;;-144.99;100.00;52460.31;5092934;28;19928;-71
2023/11/06 07:55:03;;;;;;;;;;;;;;;-144.99;100.00;52547.97;5095760;28;20122;-71
2023/11/06 07:57:29;;;;;;;;;;;;;;;-144.99;100.00;52492.94;5095221;28;20213;-72
2023/11/06 07:59:56;;;;;;;;;;;;;;;-144.99;100.00;52521.47;5096563;28;19939;-71
2023/11/06 08:02:22;;;;;;;;;;;;;;;-144.99;100.00;52497.00;5096478;28;19927;-72
2023/11/06 08:04:49;;;;;;;;;;;;;;;-144.99;100.00;52509.25;5090904;28;19928;-72
2023/11/06 08:07:17;;;;;;;;;;;;;;;-144.99;100.00;52497.00;5095855;28;20019;-73
2023/11/06 08:09:44;;;;;;;;;;;;;;;-144.99;100.00;52497.00;5086546;28;19967;-76
2023/11/06 08:12:12;;;;;;;;;;;;;;;-144.99;100.00;52521.47;5091543;28;19925;-72
2023/11/06 08:14:38;;;;;;;;;;;;;;;-144.99;100.00;52537.78;5089950;28;19930;-74
2023/11/06 08:17:05;;;;;;;;;;;;;;;-144.99;100.00;52501.09;5097517;28;20522;-73
2023/11/06 08:19:35;;;;;;;;;;;;;;;-144.99;100.00;52550.00;5093317;28;19958;-72
2023/11/06 08:22:02;;;;;;;;;;;;;;;-144.99;100.00;52541.84;5094841;28;19957;-73
2023/11/06 08:24:30;;;;;;;;;;;;;;;-144.99;100.00;52533.69;5099081;28;19935;-73
2023/11/06 08:26:56;;;;;;;;;;;;;;;-144.99;100.00;52541.84;5096404;28;19975;-72
2023/11/06 08:29:24;;;;;;;;;;;;;;;-144.99;100.00;52545.94;5094277;28;19967;-75
2023/11/06 08:31:50;;;;;;;;;;;;;;;-144.99;100.00;52525.56;5078818;28;19927;-75
2023/11/06 08:34:17;;;;;;;;;;;;;;;-144.99;100.00;52570.38;5095108;28;19978;-73
2023/11/06 08:36:44;;;;;;;;;;;;;;;-144.99;100.00;52529.63;5096776;28;20023;-71
2023/11/06 08:39:10;;;;;;;;;;;;;;;-144.99;100.00;52509.25;5091414;28;19928;-73
2023/11/06 08:41:38;;;;;;;;;;;;;;;-144.99;100.00;52513.31;5087280;28;19928;-73
2023/11/06 08:44:05;;;;;;;;;;;;;;;-144.99;100.00;52523.50;5098661;28;19963;-74
2023/11/06 08:46:31;;;;;;;;;;;;;;;-144.99;100.00;52503.13;5089690;28;20011;-73
2023/11/06 08:48:58;;;;;;;;;;;;;;;-144.99;100.00;52550.00;5097805;28;19935;-74
2023/11/06 08:51:24;;;;;;;;;;;;;;;-144.99;100.00;52507.19;5096103;28;19932;-74
2023/11/06 08:53:51;;;;;;;;;;;;;;;-144.99;100.00;52539.81;5099688;27;19978;-75
2023/11/06 08:56:19;;;;;;;;;;;;;;;-144.99;100.00;52452.16;5090941;28;20444;-74
2023/11/06 08:58:47;;;;;;;;;;;;;;;-144.99;100.00;52517.41;5087755;28;19959;-74
2023/11/06 09:01:13;;;;;;;;;;;;;;;-144.99;100.00;52505.16;5096310;28;19932;-71
2023/11/06 09:03:40;;;;;;;;;;;;;;;-144.99;100.00;52490.91;5094591;28;19936;-71
2023/11/06 09:06:06;;;;;;;;;;;;;;;-144.99;100.00;52505.16;5087617;28;20025;-72
2023/11/06 09:08:32;;;;;;;;;;;;;;;-144.99;100.00;52525.56;5088506;28;20014;-72
2023/11/06 09:10:59;;;;;;;;;;;;;;;-144.99;100.00;52488.84;5100445;28;19957;-73
2023/11/06 09:13:28;;;;;;;;;;;;;;;-144.99;100.00;52509.25;5095017;28;20026;-73
2023/11/06 09:15:56;;;;;;;;;;;;;;;-144.99;100.00;52501.09;5076580;28;20023;-72
2023/11/06 09:18:22;;;;;;;;;;;;;;;-144.99;100.00;52490.91;5088946;28;20010;-73
2023/11/06 09:20:51;;;;;;;;;;;;;;;-144.99;100.00;52533.69;5099937;28;19931;-75
2023/11/06 09:23:18;;;;;;;;;;;;;;;-144.99;100.00;52525.56;5089328;28;19924;-73
2023/11/06 09:25:44;;;;;;;;;;;;;;;-144.99;100.00;52541.84;5088394;28;20214;-73
2023/11/06 09:28:11;;;;;;;;;;;;;;;-144.99;100.00;52505.16;5086497;28;20035;-72
2023/11/06 09:30:37;;;;;;;;;;;;;;;-144.99;100.00;52521.47;5089851;28;20027;-72
2023/11/06 09:33:05;;;;;;;;;;;;;;;-144.99;100.00;52513.31;5097816;28;19928;-71
2023/11/06 09:35:31;;;;;;;;;;;;;;;-144.99;100.00;52490.91;5096995;28;20019;-72
2023/11/06 09:37:58;;;;;;;;;;;;;;;-144.99;100.00;52484.78;5075241;28;19924;-73
2023/11/06 09:40:24;;;;;;;;;;;;;;;-144.99;100.00;52460.31;5085317;28;20015;-74
2023/11/06 09:42:51;;;;;;;;;;;;;;;-144.99;99.15;52505.16;5092514;28;19923;-72
2023/11/06 09:45:18;;;;;;;;;;;;;;;-144.99;98.92;52490.91;5097645;28;20475;-73
2023/11/06 09:47:48;;;;;;;;;;;;;;;-144.99;99.03;52517.41;5104268;28;19928;-73
2023/11/06 09:50:18;;;;;;;;;;;;;;;-144.99;100.00;52533.69;5102457;28;19924;-73
2023/11/06 09:52:45;;;;;;;;;;;;;;;-144.99;100.00;52511.28;5093454;28;20023;-74
2023/11/06 09:55:15;;;;;;;;;;;;;;;-144.99;100.00;52452.16;5093450;28;19924;-73
2023/11/06 09:57:41;;;;;;;;;;;;;;;-144.99;100.00;52529.63;5101398;28;20044;-74
2023/11/06 10:00:09;;;;;;;;;;;;;;;-144.99;100.00;52533.69;5089985;28;19983;-73
2023/11/06 10:02:36;;;;;;;;;;;;;;;-144.99;100.00;52423.63;5090762;28;19950;-73
2023/11/06 10:05:03;;;;;;;;;;;;;;;-144.99;100.00;52509.25;5101838;28;19934;-71
2023/11/06 10:07:40;;;;;;;;;;;;;;;-144.99;100.00;52537.78;5100451;28;19937;-72
2023/11/06 10:10:13;;;;;;;;;;;;;;;-144.99;100.00;52533.69;5099157;28;19935;-74
2023/11/06 10:12:40;;;;;;;;;;;;;;;-144.99;100.00;52484.78;5101227;28;19978;-73
2023/11/06 10:15:07;;;;;;;;;;;;;;;-144.99;100.00;52513.31;5094887;28;20037;-72
2023/11/06 10:17:34;;;;;;;;;;;;;;;-144.99;100.00;52537.78;5098868;28;19932;-72
2023/11/06 10:20:05;;;;;;;;;;;;;;;-144.99;100.00;52562.25;5109898;27;20050;-73
2023/11/06 10:22:32;;;;;;;;;;;;;;;-144.99;100.00;52570.38;5096428;28;19990;-75
2023/11/06 10:25:00;;;;;;;;;;;;;;;-144.99;100.00;52476.63;5110833;28;19928;-74
2023/11/06 10:27:29;;;;;;;;;;;;;;;-144.99;100.00;52515.34;5110731;28;19928;-72
2023/11/06 10:29:58;;;;;;;;;;;;;;;-144.99;100.00;52517.41;5105468;28;19924;-73
2023/11/06 10:32:25;;;;;;;;;;;;;;;-144.99;99.64;52480.72;5092460;28;19928;-74
2023/11/06 10:34:52;;;;;;;;;;;;;;;-144.99;98.18;52517.41;5101972;28;19931;-74
2023/11/06 10:37:18;;;;;;;;;;;;;;;-144.99;98.21;52527.59;5106566;28;20003;-74
2023/11/06 10:39:52;;;;;;;;;;;;;;;-144.99;97.87;52503.13;5079636;28;20028;-73
2023/11/06 10:42:21;;;;;;;;;;;;;;;-144.99;98.16;52484.78;5094285;28;20018;-73
2023/11/06 10:44:50;;;;;;;;;;;;;;;-144.99;97.82;52547.97;5090598;28;19936;-74
2023/11/06 10:47:17;;;;;;;;;;;;;;;-144.99;97.71;52529.63;5094327;28;19931;-74
2023/11/06 10:49:44;;;;;;;;;;;;;;;-144.99;97.89;52515.34;5093383;28;19993;-74
2023/11/06 10:52:11;;;;;;;;;;;;;;;-144.99;98.65;52541.84;5100155;28;20010;-73
2023/11/06 10:54:38;;;;;;;;;;;;;;;-144.99;99.62;52492.94;5095655;28;20282;-72
2023/11/06 10:57:07;;;;;;;;;;;;;;;-144.99;99.52;52537.78;5122250;28;20015;-74
2023/11/06 10:59:36;;;;;;;;;;;;;;;-144.99;100.00;52497.00;5116181;28;19938;-72
2023/11/06 11:02:04;;;;;;;;;;;;;;;-144.99;99.34;52509.25;5121067;28;19916;-73
2023/11/06 11:04:31;;;;;;;;;;;;;;;-144.99;98.88;52509.25;5127290;28;19961;-72
2023/11/06 11:06:59;;;;;;;;;;;;;;;-144.99;99.20;52537.78;5116720;28;19973;-73
2023/11/06 11:09:27;;;;;;;;;;;;;;;-144.99;99.31;52554.09;5131041;28;19912;-72
2023/11/06 11:11:54;;;;;;;;;;;;;;;-144.99;99.52;52497.00;5130592;28;19919;-74
2023/11/06 11:14:20;;;;;;;;;;;;;;;-144.99;99.65;52541.84;5123754;28;19954;-74
2023/11/06 11:16:50;;;;;;;;;;;;;;;-144.99;99.00;52494.97;5119579;28;19939;-75
2023/11/06 11:19:20;;;;;;;;;;;;;;;-144.99;98.44;52550.00;5126053;27;19912;-75
2023/11/06 11:22:03;;;;;;;;;;;;;;;-144.99;98.11;52517.41;5120423;28;19919;-73
2023/11/06 11:24:49;;;;;;;;;;;;;;;-144.99;97.77;52505.16;5115781;28;20027;-74
2023/11/06 11:27:17;;;;;;;;;;;;;;;-144.99;98.22;52558.16;5112043;28;19927;-71
2023/11/06 11:30:02;;;;;;;;;;;;;;;-144.99;98.20;52521.47;5104568;28;20424;-73
2023/11/06 11:32:47;;;;;;;;;;;;;;;-144.99;98.44;52582.63;5091130;28;20356;-74
2023/11/06 11:35:28;;;;;;;;;;;;;;;-144.99;99.10;52533.69;5087951;28;19943;-73
2023/11/06 11:37:57;;;;;;;;;;;;;;;-144.99;99.76;52537.78;5070877;28;20020;-74
2023/11/06 11:40:24;;;;;;;;;;;;;;;-144.99;100.00;52545.94;5093929;28;19932;-73
2023/11/06 11:42:50;;;;;;;;;;;;;;;-144.99;100.00;52578.53;5105396;27;19932;-73
2023/11/06 11:45:29;;;;;;;;;;;;;;;-144.99;100.00;52531.66;5106985;27;20018;-73
2023/11/06 11:47:57;;;;;;;;;;;;;;;-144.99;100.00;52521.47;5104181;27;20383;-75
2023/11/06 11:50:43;;;;;;;;;;;;;;;-144.99;100.00;52543.91;5105245;28;20011;-73
2023/11/06 11:53:30;;;;;;;;;;;;;;;-144.99;100.00;52554.09;5092754;28;19924;-72
2023/11/06 11:55:56;;;;;;;;;;;;;;;-144.99;100.00;52525.56;5093958;28;19978;-72
2023/11/06 11:58:22;;;;;;;;;;;;;;;-144.99;100.00;52554.09;5098305;28;19924;-74
2023/11/06 12:00:50;;;;;;;;;;;;;;;-144.99;100.00;52521.47;5097136;28;20422;-72
2023/11/06 12:03:17;;;;;;;;;;;;;;;-144.99;100.00;52543.91;5094453;28;19924;-72
2023/11/06 12:05:46;;;;;;;;;;;;;;;-144.99;100.00;52558.16;5095073;28;19931;-72
2023/11/06 12:08:13;;;;;;;;;;;;;;;-144.99;100.00;52521.47;5093261;28;19925;-73
2023/11/06 12:10:40;;;;;;;;;;;;;;;-144.99;100.00;52560.19;5087734;28;20458;-73
2023/11/06 12:13:12;;;;;;;;;;;;;;;-144.99;100.00;52490.91;5096104;28;20050;-73
2023/11/06 12:15:38;;;;;;;;;;;;;;;-144.99;100.00;52529.63;5091408;28;20427;-72
2023/11/06 12:18:08;;;;;;;;;;;;;;;-144.99;100.00;52513.31;5098229;28;20042;-73
2023/11/06 12:20:36;;;;;;;;;;;;;;;-144.99;100.00;52545.94;5107070;28;19928;-73